sensor_id;sensor_type;location;lat;lon;timestamp;P1;durP1;ratioP1;P2;durP2;ratioP2
24145;SDS011;12308;50.948;4.706;2022-11-02T00:01:23;16.52;;;2.20;;
24145;SDS011;12308;50.948;4.706;2022-11-02T00:03:51;13.38;;;1.80;;
24145;SDS011;12308;50.948;4.706;2022-11-02T00:06:16;8.75;;;1.67;;
24145;SDS011;12308;50.948;4.706;2022-11-02T00:08:42;12.18;;;1.55;;
24145;SDS011;12308;50.948;4.706;2022-11-02T00:11:08;15.55;;;2.05;;
24145;SDS011;12308;50.948;4.706;2022-11-02T00:13:33;11.93;;;1.85;;
24145;SDS011;12308;50.948;4.706;2022-11-02T00:16:00;11.65;;;2.05;;
24145;SDS011;12308;50.948;4.706;2022-11-02T00:18:31;11.50;;;2.17;;
24145;SDS011;12308;50.948;4.706;2022-11-02T00:20:58;18.92;;;2.58;;
24145;SDS011;12308;50.948;4.706;2022-11-02T00:23:25;13.63;;;1.65;;
24145;SDS011;12308;50.948;4.706;2022-11-02T00:25:51;9.10;;;1.80;;
24145;SDS011;12308;50.948;4.706;2022-11-02T00:28:18;9.23;;;1.60;;
24145;SDS011;12308;50.948;4.706;2022-11-02T00:30:44;10.63;;;1.95;;
24145;SDS011;12308;50.948;4.706;2022-11-02T00:33:10;13.48;;;2.03;;
24145;SDS011;12308;50.948;4.706;2022-11-02T00:35:35;13.63;;;2.03;;
24145;SDS011;12308;50.948;4.706;2022-11-02T00:38:02;10.90;;;1.80;;
24145;SDS011;12308;50.948;4.706;2022-11-02T00:40:28;11.80;;;1.88;;
24145;SDS011;12308;50.948;4.706;2022-11-02T00:42:54;14.73;;;2.20;;
24145;SDS011;12308;50.948;4.706;2022-11-02T00:45:20;8.68;;;2.30;;
24145;SDS011;12308;50.948;4.706;2022-11-02T00:47:47;21.65;;;2.60;;
24145;SDS011;12308;50.948;4.706;2022-11-02T00:50:13;13.93;;;2.05;;
24145;SDS011;12308;50.948;4.706;2022-11-02T00:52:39;9.82;;;2.00;;
24145;SDS011;12308;50.948;4.706;2022-11-02T00:55:06;14.52;;;2.38;;
24145;SDS011;12308;50.948;4.706;2022-11-02T00:57:33;15.48;;;2.25;;
24145;SDS011;12308;50.948;4.706;2022-11-02T01:00:00;14.68;;;2.42;;
24145;SDS011;12308;50.948;4.706;2022-11-02T01:02:25;12.80;;;2.00;;
24145;SDS011;12308;50.948;4.706;2022-11-02T01:04:51;15.45;;;1.88;;
24145;SDS011;12308;50.948;4.706;2022-11-02T01:07:17;12.07;;;2.20;;
24145;SDS011;12308;50.948;4.706;2022-11-02T01:09:43;20.30;;;2.53;;
24145;SDS011;12308;50.948;4.706;2022-11-02T01:12:09;15.63;;;1.98;;
24145;SDS011;12308;50.948;4.706;2022-11-02T01:14:34;13.57;;;2.10;;
24145;SDS011;12308;50.948;4.706;2022-11-02T01:17:00;14.98;;;1.90;;
24145;SDS011;12308;50.948;4.706;2022-11-02T01:19:26;13.93;;;2.55;;
24145;SDS011;12308;50.948;4.706;2022-11-02T01:21:52;10.07;;;1.75;;
24145;SDS011;12308;50.948;4.706;2022-11-02T01:24:17;15.80;;;2.20;;
24145;SDS011;12308;50.948;4.706;2022-11-02T01:26:43;12.90;;;2.00;;
24145;SDS011;12308;50.948;4.706;2022-11-02T01:29:09;15.05;;;2.35;;
24145;SDS011;12308;50.948;4.706;2022-11-02T01:31:35;15.27;;;1.70;;
24145;SDS011;12308;50.948;4.706;2022-11-02T01:34:01;19.00;;;2.30;;
24145;SDS011;12308;50.948;4.706;2022-11-02T01:36:26;12.07;;;2.03;;
24145;SDS011;12308;50.948;4.706;2022-11-02T01:38:52;10.25;;;1.60;;
24145;SDS011;12308;50.948;4.706;2022-11-02T01:41:18;10.80;;;2.20;;
24145;SDS011;12308;50.948;4.706;2022-11-02T01:43:45;12.95;;;1.83;;
24145;SDS011;12308;50.948;4.706;2022-11-02T01:46:18;10.32;;;1.70;;
24145;SDS011;12308;50.948;4.706;2022-11-02T01:51:30;14.13;;;1.85;;
24145;SDS011;12308;50.948;4.706;2022-11-02T01:54:06;8.38;;;1.52;;
24145;SDS011;12308;50.948;4.706;2022-11-02T01:56:35;17.70;;;2.05;;
24145;SDS011;12308;50.948;4.706;2022-11-02T01:59:05;11.60;;;1.65;;
24145;SDS011;12308;50.948;4.706;2022-11-02T02:01:38;14.32;;;2.90;;
24145;SDS011;12308;50.948;4.706;2022-11-02T02:04:04;9.25;;;2.30;;
24145;SDS011;12308;50.948;4.706;2022-11-02T02:06:30;14.55;;;2.45;;
24145;SDS011;12308;50.948;4.706;2022-11-02T02:08:57;16.98;;;1.88;;
24145;SDS011;12308;50.948;4.706;2022-11-02T02:11:30;15.25;;;2.13;;
24145;SDS011;12308;50.948;4.706;2022-11-02T02:13:58;14.73;;;1.98;;
24145;SDS011;12308;50.948;4.706;2022-11-02T02:30:17;12.10;;;1.92;;
24145;SDS011;12308;50.948;4.706;2022-11-02T02:32:54;18.65;;;2.60;;
24145;SDS011;12308;50.948;4.706;2022-11-02T02:38:39;20.23;;;2.83;;
24145;SDS011;12308;50.948;4.706;2022-11-02T02:43:50;13.57;;;2.08;;
24145;SDS011;12308;50.948;4.706;2022-11-02T02:46:19;12.50;;;1.90;;
24145;SDS011;12308;50.948;4.706;2022-11-02T02:48:49;18.00;;;2.42;;
24145;SDS011;12308;50.948;4.706;2022-11-02T02:51:19;17.73;;;2.42;;
24145;SDS011;12308;50.948;4.706;2022-11-02T02:56:18;18.13;;;2.60;;
24145;SDS011;12308;50.948;4.706;2022-11-02T02:58:50;27.70;;;3.45;;
24145;SDS011;12308;50.948;4.706;2022-11-02T03:01:20;23.10;;;2.35;;
24145;SDS011;12308;50.948;4.706;2022-11-02T03:03:47;20.80;;;2.75;;
24145;SDS011;12308;50.948;4.706;2022-11-02T03:06:18;19.80;;;2.58;;
24145;SDS011;12308;50.948;4.706;2022-11-02T03:11:49;14.10;;;2.53;;
24145;SDS011;12308;50.948;4.706;2022-11-02T03:14:36;14.48;;;3.47;;
24145;SDS011;12308;50.948;4.706;2022-11-02T03:19:55;23.05;;;2.47;;
24145;SDS011;12308;50.948;4.706;2022-11-02T03:22:34;20.92;;;2.50;;
24145;SDS011;12308;50.948;4.706;2022-11-02T03:30:53;19.27;;;2.90;;
24145;SDS011;12308;50.948;4.706;2022-11-02T03:33:34;16.23;;;2.90;;
24145;SDS011;12308;50.948;4.706;2022-11-02T03:36:11;15.98;;;2.15;;
24145;SDS011;12308;50.948;4.706;2022-11-02T03:38:43;18.60;;;2.45;;
24145;SDS011;12308;50.948;4.706;2022-11-02T03:41:14;15.00;;;2.40;;
24145;SDS011;12308;50.948;4.706;2022-11-02T03:43:41;12.70;;;2.22;;
24145;SDS011;12308;50.948;4.706;2022-11-02T03:46:10;19.42;;;2.78;;
24145;SDS011;12308;50.948;4.706;2022-11-02T03:48:38;20.55;;;3.15;;
24145;SDS011;12308;50.948;4.706;2022-11-02T03:51:09;20.83;;;2.28;;
24145;SDS011;12308;50.948;4.706;2022-11-02T03:53:46;20.48;;;2.67;;
24145;SDS011;12308;50.948;4.706;2022-11-02T03:56:20;18.33;;;2.22;;
24145;SDS011;12308;50.948;4.706;2022-11-02T03:58:50;16.45;;;2.70;;
24145;SDS011;12308;50.948;4.706;2022-11-02T04:01:16;12.45;;;1.95;;
24145;SDS011;12308;50.948;4.706;2022-11-02T04:03:44;19.38;;;2.97;;
24145;SDS011;12308;50.948;4.706;2022-11-02T04:06:10;20.67;;;2.38;;
24145;SDS011;12308;50.948;4.706;2022-11-02T04:08:41;12.32;;;2.00;;
24145;SDS011;12308;50.948;4.706;2022-11-02T04:11:09;17.60;;;2.58;;
24145;SDS011;12308;50.948;4.706;2022-11-02T04:13:53;19.63;;;2.28;;
24145;SDS011;12308;50.948;4.706;2022-11-02T04:16:37;22.02;;;2.75;;
24145;SDS011;12308;50.948;4.706;2022-11-02T04:19:03;17.17;;;2.75;;
24145;SDS011;12308;50.948;4.706;2022-11-02T04:21:48;18.08;;;2.08;;
24145;SDS011;12308;50.948;4.706;2022-11-02T04:24:32;16.80;;;2.50;;
24145;SDS011;12308;50.948;4.706;2022-11-02T04:27:16;16.38;;;2.38;;
24145;SDS011;12308;50.948;4.706;2022-11-02T04:29:42;23.15;;;3.30;;
24145;SDS011;12308;50.948;4.706;2022-11-02T04:32:08;19.98;;;2.80;;
24145;SDS011;12308;50.948;4.706;2022-11-02T04:34:33;15.98;;;2.90;;
24145;SDS011;12308;50.948;4.706;2022-11-02T04:36:59;15.55;;;2.67;;
24145;SDS011;12308;50.948;4.706;2022-11-02T04:39:25;17.52;;;2.67;;
24145;SDS011;12308;50.948;4.706;2022-11-02T04:41:50;18.60;;;2.67;;
24145;SDS011;12308;50.948;4.706;2022-11-02T04:44:16;19.88;;;2.80;;
24145;SDS011;12308;50.948;4.706;2022-11-02T04:46:42;14.25;;;2.55;;
24145;SDS011;12308;50.948;4.706;2022-11-02T04:49:08;18.52;;;2.45;;
24145;SDS011;12308;50.948;4.706;2022-11-02T04:51:35;14.68;;;3.28;;
24145;SDS011;12308;50.948;4.706;2022-11-02T04:54:02;20.98;;;2.67;;
24145;SDS011;12308;50.948;4.706;2022-11-02T04:56:28;18.40;;;2.42;;
24145;SDS011;12308;50.948;4.706;2022-11-02T04:58:57;19.17;;;2.28;;
24145;SDS011;12308;50.948;4.706;2022-11-02T05:01:25;25.08;;;3.50;;
24145;SDS011;12308;50.948;4.706;2022-11-02T05:03:52;17.60;;;2.75;;
24145;SDS011;12308;50.948;4.706;2022-11-02T05:06:19;15.20;;;2.38;;
24145;SDS011;12308;50.948;4.706;2022-11-02T05:08:46;21.92;;;3.00;;
24145;SDS011;12308;50.948;4.706;2022-11-02T05:11:11;21.88;;;3.08;;
24145;SDS011;12308;50.948;4.706;2022-11-02T05:13:38;18.13;;;2.42;;
24145;SDS011;12308;50.948;4.706;2022-11-02T05:16:05;19.45;;;2.10;;
24145;SDS011;12308;50.948;4.706;2022-11-02T05:18:31;21.35;;;2.90;;
24145;SDS011;12308;50.948;4.706;2022-11-02T05:20:58;21.60;;;2.75;;
24145;SDS011;12308;50.948;4.706;2022-11-02T05:23:25;25.00;;;2.85;;
24145;SDS011;12308;50.948;4.706;2022-11-02T05:25:58;18.55;;;2.53;;
24145;SDS011;12308;50.948;4.706;2022-11-02T05:28:26;21.48;;;2.72;;
24145;SDS011;12308;50.948;4.706;2022-11-02T05:30:52;16.48;;;2.30;;
24145;SDS011;12308;50.948;4.706;2022-11-02T05:33:19;19.13;;;2.83;;
24145;SDS011;12308;50.948;4.706;2022-11-02T05:35:45;20.70;;;2.65;;
24145;SDS011;12308;50.948;4.706;2022-11-02T05:38:11;30.02;;;3.55;;
24145;SDS011;12308;50.948;4.706;2022-11-02T05:40:37;20.63;;;2.58;;
24145;SDS011;12308;50.948;4.706;2022-11-02T05:43:05;21.13;;;2.50;;
24145;SDS011;12308;50.948;4.706;2022-11-02T05:45:32;15.88;;;2.58;;
24145;SDS011;12308;50.948;4.706;2022-11-02T05:48:01;27.67;;;3.63;;
24145;SDS011;12308;50.948;4.706;2022-11-02T05:50:28;20.38;;;2.35;;
24145;SDS011;12308;50.948;4.706;2022-11-02T05:52:54;17.05;;;2.67;;
24145;SDS011;12308;50.948;4.706;2022-11-02T05:55:20;23.23;;;3.05;;
24145;SDS011;12308;50.948;4.706;2022-11-02T05:57:50;27.58;;;3.25;;
24145;SDS011;12308;50.948;4.706;2022-11-02T06:00:20;18.77;;;2.50;;
24145;SDS011;12308;50.948;4.706;2022-11-02T06:02:46;28.70;;;3.17;;
24145;SDS011;12308;50.948;4.706;2022-11-02T06:05:12;24.50;;;3.28;;
24145;SDS011;12308;50.948;4.706;2022-11-02T06:07:38;25.65;;;3.25;;
24145;SDS011;12308;50.948;4.706;2022-11-02T06:10:04;15.90;;;2.25;;
24145;SDS011;12308;50.948;4.706;2022-11-02T06:12:30;22.10;;;2.97;;
24145;SDS011;12308;50.948;4.706;2022-11-02T06:14:56;26.42;;;3.58;;
24145;SDS011;12308;50.948;4.706;2022-11-02T06:17:22;23.23;;;2.58;;
24145;SDS011;12308;50.948;4.706;2022-11-02T06:19:47;16.20;;;2.45;;
24145;SDS011;12308;50.948;4.706;2022-11-02T06:22:13;26.00;;;3.00;;
24145;SDS011;12308;50.948;4.706;2022-11-02T06:24:38;28.38;;;3.30;;
24145;SDS011;12308;50.948;4.706;2022-11-02T06:27:04;25.50;;;3.70;;
24145;SDS011;12308;50.948;4.706;2022-11-02T06:29:30;18.95;;;3.40;;
24145;SDS011;12308;50.948;4.706;2022-11-02T06:31:55;21.48;;;2.97;;
24145;SDS011;12308;50.948;4.706;2022-11-02T06:34:21;28.30;;;3.08;;
24145;SDS011;12308;50.948;4.706;2022-11-02T06:36:47;31.52;;;3.50;;
24145;SDS011;12308;50.948;4.706;2022-11-02T06:39:12;17.85;;;3.20;;
24145;SDS011;12308;50.948;4.706;2022-11-02T06:41:38;35.40;;;4.00;;
24145;SDS011;12308;50.948;4.706;2022-11-02T06:44:03;27.83;;;3.53;;
24145;SDS011;12308;50.948;4.706;2022-11-02T06:46:29;22.50;;;2.92;;
24145;SDS011;12308;50.948;4.706;2022-11-02T06:48:55;27.63;;;3.50;;
24145;SDS011;12308;50.948;4.706;2022-11-02T06:51:21;22.52;;;3.30;;
24145;SDS011;12308;50.948;4.706;2022-11-02T06:53:46;28.77;;;3.28;;
24145;SDS011;12308;50.948;4.706;2022-11-02T06:56:12;26.17;;;3.42;;
24145;SDS011;12308;50.948;4.706;2022-11-02T06:58:37;19.30;;;2.60;;
24145;SDS011;12308;50.948;4.706;2022-11-02T07:01:04;22.08;;;3.67;;
24145;SDS011;12308;50.948;4.706;2022-11-02T07:03:31;34.65;;;3.97;;
24145;SDS011;12308;50.948;4.706;2022-11-02T07:05:57;26.13;;;3.53;;
24145;SDS011;12308;50.948;4.706;2022-11-02T07:08:23;29.20;;;3.05;;
24145;SDS011;12308;50.948;4.706;2022-11-02T07:10:49;27.13;;;3.28;;
24145;SDS011;12308;50.948;4.706;2022-11-02T07:13:15;31.40;;;3.78;;
24145;SDS011;12308;50.948;4.706;2022-11-02T07:15:41;31.33;;;3.92;;
24145;SDS011;12308;50.948;4.706;2022-11-02T07:18:07;33.03;;;3.83;;
24145;SDS011;12308;50.948;4.706;2022-11-02T07:20:33;25.45;;;3.08;;
24145;SDS011;12308;50.948;4.706;2022-11-02T07:23:00;29.27;;;3.70;;
24145;SDS011;12308;50.948;4.706;2022-11-02T07:25:27;30.60;;;3.45;;
24145;SDS011;12308;50.948;4.706;2022-11-02T07:27:57;31.67;;;4.00;;
24145;SDS011;12308;50.948;4.706;2022-11-02T07:30:30;25.92;;;4.10;;
24145;SDS011;12308;50.948;4.706;2022-11-02T07:32:57;27.77;;;3.42;;
24145;SDS011;12308;50.948;4.706;2022-11-02T07:35:23;33.58;;;3.30;;
24145;SDS011;12308;50.948;4.706;2022-11-02T07:37:58;27.05;;;3.70;;
24145;SDS011;12308;50.948;4.706;2022-11-02T07:40:29;27.87;;;3.57;;
24145;SDS011;12308;50.948;4.706;2022-11-02T07:42:56;24.27;;;3.78;;
24145;SDS011;12308;50.948;4.706;2022-11-02T07:45:22;36.78;;;4.25;;
24145;SDS011;12308;50.948;4.706;2022-11-02T07:47:49;28.33;;;4.53;;
24145;SDS011;12308;50.948;4.706;2022-11-02T07:50:19;25.10;;;4.22;;
24145;SDS011;12308;50.948;4.706;2022-11-02T07:52:47;22.48;;;3.40;;
24145;SDS011;12308;50.948;4.706;2022-11-02T07:55:14;38.08;;;5.13;;
24145;SDS011;12308;50.948;4.706;2022-11-02T07:57:42;23.73;;;3.78;;
24145;SDS011;12308;50.948;4.706;2022-11-02T08:00:10;32.28;;;3.85;;
24145;SDS011;12308;50.948;4.706;2022-11-02T08:02:36;28.15;;;3.33;;
24145;SDS011;12308;50.948;4.706;2022-11-02T08:05:03;29.75;;;3.38;;
24145;SDS011;12308;50.948;4.706;2022-11-02T08:07:29;30.45;;;3.85;;
24145;SDS011;12308;50.948;4.706;2022-11-02T08:09:55;25.63;;;3.25;;
24145;SDS011;12308;50.948;4.706;2022-11-02T08:12:20;25.00;;;2.70;;
24145;SDS011;12308;50.948;4.706;2022-11-02T08:14:46;22.80;;;3.25;;
24145;SDS011;12308;50.948;4.706;2022-11-02T08:17:12;26.67;;;3.55;;
24145;SDS011;12308;50.948;4.706;2022-11-02T08:19:37;29.75;;;4.00;;
24145;SDS011;12308;50.948;4.706;2022-11-02T08:22:03;23.98;;;3.25;;
24145;SDS011;12308;50.948;4.706;2022-11-02T08:24:29;23.63;;;4.05;;
24145;SDS011;12308;50.948;4.706;2022-11-02T08:26:54;29.20;;;3.53;;
24145;SDS011;12308;50.948;4.706;2022-11-02T08:29:20;26.33;;;3.47;;
24145;SDS011;12308;50.948;4.706;2022-11-02T08:31:46;26.90;;;3.90;;
24145;SDS011;12308;50.948;4.706;2022-11-02T08:34:12;28.77;;;3.88;;
24145;SDS011;12308;50.948;4.706;2022-11-02T08:36:37;24.60;;;3.55;;
24145;SDS011;12308;50.948;4.706;2022-11-02T08:39:03;52.05;;;5.15;;
24145;SDS011;12308;50.948;4.706;2022-11-02T08:41:29;31.65;;;3.50;;
24145;SDS011;12308;50.948;4.706;2022-11-02T08:43:54;130.43;;;10.93;;
24145;SDS011;12308;50.948;4.706;2022-11-02T08:46:21;39.15;;;4.45;;
24145;SDS011;12308;50.948;4.706;2022-11-02T08:48:47;60.10;;;5.53;;
24145;SDS011;12308;50.948;4.706;2022-11-02T08:51:13;209.15;;;17.55;;
24145;SDS011;12308;50.948;4.706;2022-11-02T08:53:38;28.45;;;3.47;;
24145;SDS011;12308;50.948;4.706;2022-11-02T08:56:04;30.92;;;4.00;;
24145;SDS011;12308;50.948;4.706;2022-11-02T08:58:30;38.80;;;4.07;;
24145;SDS011;12308;50.948;4.706;2022-11-02T09:00:56;25.55;;;3.30;;
24145;SDS011;12308;50.948;4.706;2022-11-02T09:03:21;23.40;;;4.20;;
24145;SDS011;12308;50.948;4.706;2022-11-02T09:05:48;33.50;;;3.58;;
24145;SDS011;12308;50.948;4.706;2022-11-02T09:08:18;28.45;;;3.80;;
24145;SDS011;12308;50.948;4.706;2022-11-02T09:10:49;31.45;;;3.60;;
24145;SDS011;12308;50.948;4.706;2022-11-02T09:13:16;27.30;;;3.70;;
24145;SDS011;12308;50.948;4.706;2022-11-02T09:15:48;24.98;;;3.75;;
24145;SDS011;12308;50.948;4.706;2022-11-02T09:18:14;36.05;;;4.20;;
24145;SDS011;12308;50.948;4.706;2022-11-02T09:20:39;32.83;;;3.50;;
24145;SDS011;12308;50.948;4.706;2022-11-02T09:23:05;30.95;;;3.65;;
24145;SDS011;12308;50.948;4.706;2022-11-02T09:25:31;29.70;;;4.47;;
24145;SDS011;12308;50.948;4.706;2022-11-02T09:27:57;29.65;;;3.60;;
24145;SDS011;12308;50.948;4.706;2022-11-02T09:30:23;27.60;;;3.65;;
24145;SDS011;12308;50.948;4.706;2022-11-02T09:32:57;16.67;;;3.35;;
24145;SDS011;12308;50.948;4.706;2022-11-02T09:35:24;26.95;;;3.58;;
24145;SDS011;12308;50.948;4.706;2022-11-02T09:37:51;27.85;;;3.45;;
24145;SDS011;12308;50.948;4.706;2022-11-02T09:40:21;30.38;;;3.22;;
24145;SDS011;12308;50.948;4.706;2022-11-02T09:45:17;25.85;;;4.47;;
24145;SDS011;12308;50.948;4.706;2022-11-02T09:47:47;30.58;;;3.53;;
24145;SDS011;12308;50.948;4.706;2022-11-02T09:50:21;29.83;;;4.20;;
24145;SDS011;12308;50.948;4.706;2022-11-02T09:52:50;22.08;;;3.20;;
24145;SDS011;12308;50.948;4.706;2022-11-02T09:55:22;29.23;;;3.90;;
24145;SDS011;12308;50.948;4.706;2022-11-02T09:57:56;24.88;;;4.10;;
24145;SDS011;12308;50.948;4.706;2022-11-02T10:00:31;19.75;;;3.30;;
24145;SDS011;12308;50.948;4.706;2022-11-02T10:06:00;21.30;;;3.25;;
24145;SDS011;12308;50.948;4.706;2022-11-02T10:08:53;29.55;;;3.53;;
24145;SDS011;12308;50.948;4.706;2022-11-02T10:16:34;24.27;;;3.67;;
24145;SDS011;12308;50.948;4.706;2022-11-02T10:19:04;27.73;;;3.15;;
24145;SDS011;12308;50.948;4.706;2022-11-02T10:21:37;30.75;;;4.35;;
24145;SDS011;12308;50.948;4.706;2022-11-02T10:26:39;26.65;;;3.35;;
24145;SDS011;12308;50.948;4.706;2022-11-02T10:29:14;23.40;;;2.97;;
24145;SDS011;12308;50.948;4.706;2022-11-02T10:32:03;28.13;;;3.65;;
24145;SDS011;12308;50.948;4.706;2022-11-02T10:34:29;26.38;;;3.92;;
24145;SDS011;12308;50.948;4.706;2022-11-02T10:47:54;27.25;;;3.45;;
24145;SDS011;12308;50.948;4.706;2022-11-02T10:53:16;25.80;;;3.33;;
24145;SDS011;12308;50.948;4.706;2022-11-02T10:58:26;23.27;;;3.33;;
24145;SDS011;12308;50.948;4.706;2022-11-02T11:01:07;23.98;;;3.08;;
24145;SDS011;12308;50.948;4.706;2022-11-02T11:03:51;22.27;;;3.25;;
24145;SDS011;12308;50.948;4.706;2022-11-02T11:06:28;20.95;;;3.13;;
24145;SDS011;12308;50.948;4.706;2022-11-02T11:09:04;30.10;;;3.63;;
24145;SDS011;12308;50.948;4.706;2022-11-02T11:11:39;27.92;;;3.08;;
24145;SDS011;12308;50.948;4.706;2022-11-02T11:14:15;28.33;;;2.80;;
24145;SDS011;12308;50.948;4.706;2022-11-02T11:16:45;25.65;;;3.55;;
24145;SDS011;12308;50.948;4.706;2022-11-02T11:19:20;24.58;;;3.67;;
24145;SDS011;12308;50.948;4.706;2022-11-02T11:21:49;25.75;;;3.90;;
24145;SDS011;12308;50.948;4.706;2022-11-02T11:24:33;23.73;;;3.90;;
24145;SDS011;12308;50.948;4.706;2022-11-02T11:29:38;20.35;;;2.95;;
24145;SDS011;12308;50.948;4.706;2022-11-02T11:32:16;63.90;;;6.88;;
24145;SDS011;12308;50.948;4.706;2022-11-02T11:34:52;25.95;;;3.92;;
24145;SDS011;12308;50.948;4.706;2022-11-02T11:37:29;53.75;;;4.97;;
24145;SDS011;12308;50.948;4.706;2022-11-02T11:40:02;36.53;;;3.95;;
24145;SDS011;12308;50.948;4.706;2022-11-02T11:42:31;64.03;;;5.60;;
24145;SDS011;12308;50.948;4.706;2022-11-02T11:45:02;25.70;;;3.33;;
24145;SDS011;12308;50.948;4.706;2022-11-02T11:47:34;25.88;;;4.00;;
24145;SDS011;12308;50.948;4.706;2022-11-02T11:50:03;28.63;;;3.53;;
24145;SDS011;12308;50.948;4.706;2022-11-02T11:52:38;30.15;;;3.42;;
24145;SDS011;12308;50.948;4.706;2022-11-02T11:58:19;24.52;;;3.92;;
24145;SDS011;12308;50.948;4.706;2022-11-02T12:00:52;25.13;;;3.05;;
24145;SDS011;12308;50.948;4.706;2022-11-02T12:03:54;26.23;;;3.22;;
24145;SDS011;12308;50.948;4.706;2022-11-02T12:18:36;129.77;;;10.55;;
24145;SDS011;12308;50.948;4.706;2022-11-02T12:31:50;18.70;;;2.45;;
24145;SDS011;12308;50.948;4.706;2022-11-02T12:37:39;42.50;;;4.47;;
24145;SDS011;12308;50.948;4.706;2022-11-02T12:43:31;24.08;;;3.28;;
24145;SDS011;12308;50.948;4.706;2022-11-02T12:51:21;160.88;;;15.05;;
24145;SDS011;12308;50.948;4.706;2022-11-02T12:53:58;22.10;;;3.13;;
24145;SDS011;12308;50.948;4.706;2022-11-02T12:56:41;64.82;;;6.82;;
24145;SDS011;12308;50.948;4.706;2022-11-02T12:59:16;18.00;;;2.53;;
24145;SDS011;12308;50.948;4.706;2022-11-02T13:01:46;23.50;;;2.65;;
24145;SDS011;12308;50.948;4.706;2022-11-02T13:06:43;19.52;;;2.65;;
24145;SDS011;12308;50.948;4.706;2022-11-02T13:09:20;21.00;;;2.70;;
24145;SDS011;12308;50.948;4.706;2022-11-02T13:11:59;43.22;;;4.28;;
24145;SDS011;12308;50.948;4.706;2022-11-02T13:14:33;114.88;;;10.18;;
24145;SDS011;12308;50.948;4.706;2022-11-02T13:20:04;22.08;;;3.13;;
24145;SDS011;12308;50.948;4.706;2022-11-02T13:22:38;26.88;;;3.38;;
24145;SDS011;12308;50.948;4.706;2022-11-02T13:27:46;12.05;;;1.90;;
24145;SDS011;12308;50.948;4.706;2022-11-02T13:30:23;16.48;;;2.47;;
24145;SDS011;12308;50.948;4.706;2022-11-02T13:32:51;17.63;;;2.33;;
24145;SDS011;12308;50.948;4.706;2022-11-02T13:35:34;22.45;;;2.95;;
24145;SDS011;12308;50.948;4.706;2022-11-02T13:40:37;122.20;;;10.38;;
24145;SDS011;12308;50.948;4.706;2022-11-02T13:45:53;34.42;;;3.00;;
24145;SDS011;12308;50.948;4.706;2022-11-02T13:49:00;26.38;;;2.85;;
24145;SDS011;12308;50.948;4.706;2022-11-02T13:51:49;29.48;;;3.67;;
24145;SDS011;12308;50.948;4.706;2022-11-02T13:56:51;15.50;;;2.58;;
24145;SDS011;12308;50.948;4.706;2022-11-02T13:59:20;14.20;;;2.58;;
24145;SDS011;12308;50.948;4.706;2022-11-02T14:01:46;23.38;;;2.95;;
24145;SDS011;12308;50.948;4.706;2022-11-02T14:04:15;14.77;;;2.28;;
24145;SDS011;12308;50.948;4.706;2022-11-02T14:06:43;14.45;;;2.17;;
24145;SDS011;12308;50.948;4.706;2022-11-02T14:12:09;15.38;;;2.03;;
24145;SDS011;12308;50.948;4.706;2022-11-02T14:14:41;15.65;;;2.08;;
24145;SDS011;12308;50.948;4.706;2022-11-02T14:32:45;29.70;;;3.35;;
24145;SDS011;12308;50.948;4.706;2022-11-02T14:42:57;57.25;;;6.00;;
24145;SDS011;12308;50.948;4.706;2022-11-02T14:48:13;14.77;;;1.73;;
24145;SDS011;12308;50.948;4.706;2022-11-02T14:50:40;11.35;;;2.20;;
24145;SDS011;12308;50.948;4.706;2022-11-02T14:53:26;13.85;;;2.03;;
24145;SDS011;12308;50.948;4.706;2022-11-02T14:55:55;13.88;;;2.38;;
24145;SDS011;12308;50.948;4.706;2022-11-02T14:58:31;18.83;;;2.88;;
24145;SDS011;12308;50.948;4.706;2022-11-02T15:01:01;16.27;;;2.00;;
24145;SDS011;12308;50.948;4.706;2022-11-02T15:08:55;15.98;;;2.35;;
24145;SDS011;12308;50.948;4.706;2022-11-02T15:17:00;15.23;;;1.80;;
24145;SDS011;12308;50.948;4.706;2022-11-02T15:19:46;13.90;;;1.90;;
24145;SDS011;12308;50.948;4.706;2022-11-02T15:25:08;16.33;;;2.33;;
24145;SDS011;12308;50.948;4.706;2022-11-02T15:27:42;13.35;;;2.13;;
24145;SDS011;12308;50.948;4.706;2022-11-02T15:30:12;14.50;;;2.28;;
24145;SDS011;12308;50.948;4.706;2022-11-02T15:35:17;15.02;;;1.95;;
24145;SDS011;12308;50.948;4.706;2022-11-02T15:37:45;11.73;;;2.00;;
24145;SDS011;12308;50.948;4.706;2022-11-02T15:40:21;16.85;;;2.55;;
24145;SDS011;12308;50.948;4.706;2022-11-02T15:51:14;168.18;;;83.43;;
24145;SDS011;12308;50.948;4.706;2022-11-02T16:04:29;15.65;;;5.50;;
24145;SDS011;12308;50.948;4.706;2022-11-02T16:06:55;23.13;;;11.13;;
24145;SDS011;12308;50.948;4.706;2022-11-02T16:12:02;62.08;;;5.95;;
24145;SDS011;12308;50.948;4.706;2022-11-02T16:17:17;29.63;;;7.97;;
24145;SDS011;12308;50.948;4.706;2022-11-02T16:19:44;195.70;;;63.70;;
24145;SDS011;12308;50.948;4.706;2022-11-02T16:22:09;36.95;;;10.82;;
24145;SDS011;12308;50.948;4.706;2022-11-02T16:24:39;63.40;;;22.27;;
24145;SDS011;12308;50.948;4.706;2022-11-02T16:27:10;201.95;;;76.50;;
24145;SDS011;12308;50.948;4.706;2022-11-02T16:29:37;66.50;;;22.25;;
24145;SDS011;12308;50.948;4.706;2022-11-02T16:32:08;79.38;;;25.88;;
24145;SDS011;12308;50.948;4.706;2022-11-02T16:34:34;102.65;;;38.85;;
24145;SDS011;12308;50.948;4.706;2022-11-02T16:37:01;35.75;;;7.70;;
24145;SDS011;12308;50.948;4.706;2022-11-02T16:39:29;35.42;;;10.27;;
24145;SDS011;12308;50.948;4.706;2022-11-02T16:42:00;18.65;;;4.50;;
24145;SDS011;12308;50.948;4.706;2022-11-02T16:44:31;22.70;;;6.32;;
24145;SDS011;12308;50.948;4.706;2022-11-02T16:46:59;59.65;;;20.88;;
24145;SDS011;12308;50.948;4.706;2022-11-02T16:49:34;59.67;;;16.48;;
24145;SDS011;12308;50.948;4.706;2022-11-02T16:52:29;28.20;;;6.65;;
24145;SDS011;12308;50.948;4.706;2022-11-02T16:54:56;32.20;;;7.57;;
24145;SDS011;12308;50.948;4.706;2022-11-02T16:57:24;45.28;;;14.15;;
24145;SDS011;12308;50.948;4.706;2022-11-02T16:59:59;106.05;;;36.55;;
24145;SDS011;12308;50.948;4.706;2022-11-02T17:04:54;41.33;;;10.90;;
24145;SDS011;12308;50.948;4.706;2022-11-02T17:07:40;103.97;;;31.33;;
24145;SDS011;12308;50.948;4.706;2022-11-02T17:10:08;132.38;;;40.95;;
24145;SDS011;12308;50.948;4.706;2022-11-02T17:12:48;123.55;;;47.92;;
24145;SDS011;12308;50.948;4.706;2022-11-02T17:15:23;75.20;;;22.35;;
24145;SDS011;12308;50.948;4.706;2022-11-02T17:20:32;262.23;;;88.47;;
24145;SDS011;12308;50.948;4.706;2022-11-02T17:22:59;135.68;;;44.38;;
24145;SDS011;12308;50.948;4.706;2022-11-02T17:27:53;689.53;;;211.57;;
24145;SDS011;12308;50.948;4.706;2022-11-02T17:32:59;364.77;;;103.68;;
24145;SDS011;12308;50.948;4.706;2022-11-02T17:35:32;547.60;;;161.52;;
24145;SDS011;12308;50.948;4.706;2022-11-02T17:37:58;407.92;;;130.00;;
24145;SDS011;12308;50.948;4.706;2022-11-02T17:40:25;122.15;;;54.40;;
24145;SDS011;12308;50.948;4.706;2022-11-02T17:42:51;69.63;;;25.58;;
24145;SDS011;12308;50.948;4.706;2022-11-02T17:47:49;44.42;;;15.80;;
24145;SDS011;12308;50.948;4.706;2022-11-02T17:50:15;41.28;;;17.90;;
24145;SDS011;12308;50.948;4.706;2022-11-02T17:52:40;33.15;;;15.32;;
24145;SDS011;12308;50.948;4.706;2022-11-02T17:55:08;35.50;;;14.68;;
24145;SDS011;12308;50.948;4.706;2022-11-02T17:57:38;90.10;;;56.28;;
24145;SDS011;12308;50.948;4.706;2022-11-02T18:00:03;93.85;;;63.35;;
24145;SDS011;12308;50.948;4.706;2022-11-02T18:02:29;54.53;;;31.52;;
24145;SDS011;12308;50.948;4.706;2022-11-02T18:04:58;40.00;;;19.95;;
24145;SDS011;12308;50.948;4.706;2022-11-02T18:07:24;40.85;;;24.98;;
24145;SDS011;12308;50.948;4.706;2022-11-02T18:09:49;21.52;;;10.10;;
24145;SDS011;12308;50.948;4.706;2022-11-02T18:12:15;23.85;;;5.88;;